createdAt,value
2018-11-28T00:00:59.044Z,8.00
2018-11-28T00:03:28.682Z,7.90
2018-11-28T00:06:00.593Z,7.80
2018-11-28T00:08:33.055Z,7.80
2018-11-28T00:11:04.634Z,7.70
2018-11-28T00:13:36.213Z,7.60
2018-11-28T00:16:10.209Z,7.60
2018-11-28T00:18:38.847Z,7.50
2018-11-28T00:21:12.451Z,7.50
2018-11-28T00:23:44.273Z,7.40
2018-11-28T00:26:14.093Z,7.40
2018-11-28T00:28:46.563Z,7.40
2018-11-28T00:31:17.811Z,7.40
2018-11-28T00:33:50.594Z,7.40
2018-11-28T00:36:20.866Z,7.40
2018-11-28T00:38:49.547Z,7.50
2018-11-28T00:41:20.610Z,7.50
2018-11-28T00:43:52.774Z,7.50
2018-11-28T00:46:22.752Z,7.50
2018-11-28T00:48:51.429Z,7.50
2018-11-28T00:51:20.009Z,7.50
2018-11-28T00:53:48.632Z,7.40
2018-11-28T00:56:17.150Z,7.40
2018-11-28T00:58:45.685Z,7.30
2018-11-28T01:01:14.163Z,7.30
2018-11-28T01:03:42.717Z,7.30
2018-11-28T01:06:11.356Z,7.30
2018-11-28T01:08:39.995Z,7.30
2018-11-28T01:11:08.541Z,7.30
2018-11-28T01:13:37.797Z,7.30
2018-11-28T01:16:07.073Z,7.30
2018-11-28T01:18:35.682Z,7.30
2018-11-28T01:21:04.269Z,7.20
2018-11-28T01:23:32.918Z,7.10
2018-11-28T01:26:02.984Z,7.10
2018-11-28T01:28:30.416Z,7.00
2018-11-28T01:30:59.041Z,7.00
2018-11-28T01:33:27.562Z,7.00
2018-11-28T01:35:56.113Z,6.90
2018-11-28T01:38:24.790Z,6.90
2018-11-28T01:40:53.335Z,7.00
2018-11-28T01:43:21.851Z,6.90
2018-11-28T01:45:50.923Z,7.00
2018-11-28T01:48:19.501Z,7.10
2018-11-28T01:50:48.051Z,7.20
2018-11-28T01:53:16.617Z,7.20
2018-11-28T01:55:45.174Z,7.30
2018-11-28T01:58:13.721Z,7.30
2018-11-28T02:00:42.308Z,7.30
2018-11-28T02:03:10.903Z,7.40
2018-11-28T02:05:39.654Z,7.40
2018-11-28T02:08:08.337Z,7.50
2018-11-28T02:10:36.998Z,7.50
2018-11-28T02:13:05.604Z,7.50
2018-11-28T02:15:34.533Z,7.50
2018-11-28T02:18:03.099Z,7.50
2018-11-28T02:20:31.658Z,7.50
2018-11-28T02:23:00.276Z,7.50
2018-11-28T02:25:28.889Z,7.50
2018-11-28T02:27:57.407Z,7.60
2018-11-28T02:30:25.912Z,7.60
2018-11-28T02:32:54.394Z,7.60
2018-11-28T02:35:23.133Z,7.60
2018-11-28T02:37:51.637Z,7.70
2018-11-28T02:40:20.498Z,7.70
2018-11-28T02:42:50.001Z,7.80
2018-11-28T02:45:20.173Z,7.80
2018-11-28T02:47:48.900Z,7.80
2018-11-28T02:50:17.581Z,7.80
2018-11-28T02:52:46.234Z,7.70
2018-11-28T02:55:15.758Z,7.70
2018-11-28T02:57:46.275Z,7.70
2018-11-28T03:00:23.462Z,7.60
2018-11-28T03:02:52.152Z,7.60
2018-11-28T03:05:21.538Z,7.60
2018-11-28T03:07:50.105Z,7.60
2018-11-28T03:10:23.148Z,7.50
2018-11-28T03:12:52.863Z,7.50
2018-11-28T03:15:28.157Z,7.60
2018-11-28T03:17:56.822Z,7.50
2018-11-28T03:20:25.401Z,7.50
2018-11-28T03:22:53.982Z,7.50
2018-11-28T03:25:22.588Z,7.50
2018-11-28T03:27:51.107Z,7.50
2018-11-28T03:30:19.764Z,7.50
2018-11-28T03:32:48.423Z,7.50
2018-11-28T03:35:17.130Z,7.50
2018-11-28T03:37:46.820Z,7.50
2018-11-28T03:40:15.731Z,7.50
2018-11-28T03:42:44.482Z,7.50
2018-11-28T03:45:14.832Z,7.50
2018-11-28T03:47:44.207Z,7.60
2018-11-28T03:50:13.773Z,7.60
2018-11-28T03:52:43.519Z,7.60
2018-11-28T03:55:16.047Z,7.60
2018-11-28T03:57:46.452Z,7.60
2018-11-28T04:00:16.849Z,7.70
2018-11-28T04:02:45.483Z,7.60
2018-11-28T04:05:14.090Z,7.60
2018-11-28T04:07:43.826Z,7.70
2018-11-28T04:10:13.302Z,7.80
2018-11-28T04:12:42.494Z,7.70
2018-11-28T04:15:16.828Z,7.80
2018-11-28T04:17:45.418Z,7.90
2018-11-28T04:20:14.938Z,7.90
2018-11-28T04:22:44.180Z,7.80
2018-11-28T04:25:13.711Z,7.90
2018-11-28T04:27:42.617Z,7.80
2018-11-28T04:30:16.058Z,7.80
2018-11-28T04:32:45.599Z,7.80
2018-11-28T04:35:14.689Z,7.90
2018-11-28T04:37:44.099Z,7.90
2018-11-28T04:40:14.561Z,7.80
2018-11-28T04:42:43.525Z,7.80
2018-11-28T04:45:22.521Z,7.80
2018-11-28T04:47:51.811Z,7.80
2018-11-28T04:50:20.473Z,7.70
2018-11-28T04:52:49.122Z,7.70
2018-11-28T04:55:20.166Z,7.60
2018-11-28T04:57:49.046Z,7.70
2018-11-28T05:00:20.613Z,7.70
2018-11-28T05:02:49.417Z,7.80
2018-11-28T05:05:18.128Z,7.80
2018-11-28T05:07:48.115Z,7.90
2018-11-28T05:10:17.649Z,7.90
2018-11-28T05:12:46.449Z,7.80
2018-11-28T05:15:17.041Z,7.80
2018-11-28T05:17:46.757Z,7.80
2018-11-28T05:20:16.472Z,7.70
2018-11-28T05:22:45.425Z,7.70
2018-11-28T05:25:15.398Z,7.80
2018-11-28T05:27:44.137Z,7.80
2018-11-28T05:30:13.890Z,7.80
2018-11-28T05:32:42.583Z,7.80
2018-11-28T05:35:15.800Z,7.80
2018-11-28T05:37:45.251Z,7.80
2018-11-28T05:40:24.824Z,7.80
2018-11-28T05:42:53.534Z,7.80
2018-11-28T05:45:22.449Z,7.90
2018-11-28T05:47:51.068Z,7.90
2018-11-28T05:50:22.012Z,7.90
2018-11-28T05:52:50.703Z,7.90
2018-11-28T05:55:20.372Z,7.90
2018-11-28T05:57:49.096Z,7.90
2018-11-28T06:00:23.318Z,7.90
2018-11-28T06:02:51.840Z,7.90
2018-11-28T06:05:20.429Z,7.90
2018-11-28T06:07:49.056Z,7.90
2018-11-28T06:10:18.754Z,7.90
2018-11-28T06:12:47.461Z,7.90
2018-11-28T06:15:16.201Z,8.00
2018-11-28T06:17:44.933Z,8.10
2018-11-28T06:20:16.380Z,8.10
2018-11-28T06:22:48.139Z,8.10
2018-11-28T06:25:29.048Z,8.10
2018-11-28T06:27:57.840Z,8.10
2018-11-28T06:30:26.656Z,8.10
2018-11-28T06:32:55.288Z,8.10
2018-11-28T06:35:23.853Z,8.20
2018-11-28T06:37:53.507Z,8.10
2018-11-28T06:40:24.512Z,8.20
2018-11-28T06:42:53.411Z,8.20
2018-11-28T06:45:22.810Z,7.80
2018-11-28T06:47:52.438Z,7.90
2018-11-28T06:50:21.479Z,8.00
2018-11-28T06:52:51.095Z,8.10
2018-11-28T06:55:20.950Z,8.10
2018-11-28T06:57:49.955Z,8.20
2018-11-28T07:00:23.166Z,8.20
2018-11-28T07:02:52.883Z,8.20
2018-11-28T07:05:22.670Z,8.20
2018-11-28T07:07:51.984Z,8.20
2018-11-28T07:10:21.556Z,8.30
2018-11-28T07:12:50.909Z,8.30
2018-11-28T07:15:26.674Z,8.10
2018-11-28T07:18:07.355Z,8.00
2018-11-28T07:20:36.776Z,8.10
2018-11-28T07:23:06.005Z,8.20
2018-11-28T07:25:34.551Z,8.30
2018-11-28T07:28:13.502Z,8.40
2018-11-28T07:30:44.321Z,8.40
2018-11-28T07:33:12.908Z,8.40
2018-11-28T07:35:42.532Z,8.40
2018-11-28T07:38:11.801Z,8.40
2018-11-28T07:40:41.402Z,8.40
2018-11-28T07:43:13.435Z,8.40
2018-11-28T07:45:45.539Z,8.50
2018-11-28T07:48:14.472Z,8.50
2018-11-28T07:50:44.610Z,8.30
2018-11-28T07:53:13.649Z,8.30
2018-11-28T07:55:42.912Z,8.40
2018-11-28T07:58:13.206Z,8.60
2018-11-28T08:00:42.988Z,8.70
2018-11-28T08:03:12.725Z,8.80
2018-11-28T08:05:42.648Z,8.90
2018-11-28T08:08:12.266Z,8.90
2018-11-28T08:10:41.100Z,9.00
2018-11-28T08:13:10.982Z,8.90
2018-11-28T08:15:40.675Z,8.90
2018-11-28T08:18:09.512Z,8.80
2018-11-28T08:20:38.437Z,8.80
2018-11-28T08:23:07.893Z,8.80
2018-11-28T08:25:36.712Z,8.70
2018-11-28T08:28:05.937Z,8.70
2018-11-28T08:30:34.655Z,8.80
2018-11-28T08:33:03.568Z,8.80
2018-11-28T08:35:32.510Z,8.80
2018-11-28T08:38:01.146Z,8.90
2018-11-28T08:40:31.657Z,8.90
2018-11-28T08:43:00.708Z,8.90
2018-11-28T08:45:31.485Z,9.00
2018-11-28T08:48:00.105Z,9.00
2018-11-28T08:50:31.734Z,9.00
2018-11-28T08:53:00.875Z,9.00
2018-11-28T08:55:29.892Z,9.00
2018-11-28T08:57:58.763Z,9.00
2018-11-28T09:00:28.275Z,9.00
2018-11-28T09:02:58.046Z,9.10
2018-11-28T09:05:27.019Z,9.20
2018-11-28T09:07:56.011Z,9.20
2018-11-28T09:10:24.958Z,9.30
2018-11-28T09:13:03.534Z,9.30
2018-11-28T09:15:29.443Z,9.40
2018-11-28T09:17:58.499Z,9.40
2018-11-28T09:20:27.251Z,9.50
2018-11-28T09:22:56.909Z,9.50
2018-11-28T09:25:25.717Z,9.50
2018-11-28T09:27:57.228Z,9.60
2018-11-28T09:30:28.075Z,9.60
2018-11-28T09:32:56.797Z,9.70
2018-11-28T09:35:25.783Z,9.70
2018-11-28T09:37:54.535Z,9.70
2018-11-28T09:40:26.128Z,9.80
2018-11-28T09:43:00.122Z,9.80
2018-11-28T09:45:29.133Z,9.80
2018-11-28T09:47:58.148Z,9.80
2018-11-28T09:50:27.610Z,9.70
2018-11-28T09:53:00.462Z,9.70
2018-11-28T09:55:30.552Z,9.70
2018-11-28T09:57:59.606Z,9.80
2018-11-28T10:00:29.853Z,10.00
2018-11-28T10:02:59.550Z,10.10
2018-11-28T10:05:33.255Z,10.10
2018-11-28T10:08:03.889Z,10.10
2018-11-28T10:10:33.417Z,10.10
2018-11-28T10:13:03.304Z,10.10
2018-11-28T10:15:35.502Z,10.00
2018-11-28T10:18:01.666Z,10.10
2018-11-28T10:20:30.595Z,10.10
2018-11-28T10:23:02.462Z,10.10
2018-11-28T10:25:32.465Z,10.20
2018-11-28T10:28:06.726Z,10.20
2018-11-28T10:30:36.883Z,10.20
2018-11-28T10:33:08.261Z,10.30
2018-11-28T10:35:38.281Z,10.40
2018-11-28T10:38:09.448Z,10.50
2018-11-28T10:40:38.513Z,10.60
2018-11-28T10:43:09.463Z,10.70
2018-11-28T10:45:38.889Z,10.60
2018-11-28T10:48:11.034Z,10.60
2018-11-28T10:50:39.954Z,10.50
2018-11-28T10:53:09.114Z,10.50
2018-11-28T10:55:38.020Z,10.40
2018-11-28T10:58:13.720Z,10.40
2018-11-28T11:00:47.764Z,10.40
2018-11-28T11:03:21.739Z,10.40
2018-11-28T11:05:57.729Z,10.40
2018-11-28T11:08:31.607Z,10.40
2018-11-28T11:11:05.567Z,10.60
2018-11-28T11:13:40.360Z,10.70
2018-11-28T11:16:08.982Z,10.70
2018-11-28T11:18:37.815Z,10.80
2018-11-28T11:21:06.691Z,10.80
2018-11-28T11:23:36.925Z,10.80
2018-11-28T11:26:14.376Z,10.90
2018-11-28T11:28:43.260Z,11.00
2018-11-28T11:34:29.910Z,11.20
2018-11-28T11:37:55.791Z,11.30
2018-11-28T11:40:24.643Z,11.40
2018-11-28T11:42:53.952Z,11.40
2018-11-28T11:45:22.962Z,11.30
2018-11-28T11:47:52.042Z,11.20
2018-11-28T11:54:31.299Z,11.00
2018-11-28T11:56:58.950Z,11.00
2018-11-28T11:59:27.844Z,11.10
2018-11-28T12:01:56.629Z,11.10
2018-11-28T12:04:38.894Z,11.20
2018-11-28T12:07:07.768Z,11.30
2018-11-28T12:09:36.837Z,11.30
2018-11-28T12:12:05.985Z,11.40
2018-11-28T12:14:34.905Z,11.60
2018-11-28T12:17:06.022Z,11.60
2018-11-28T12:19:35.062Z,11.50
2018-11-28T12:22:05.896Z,11.40
2018-11-28T12:24:36.733Z,11.40
2018-11-28T12:27:06.082Z,11.40
2018-11-28T12:29:34.850Z,11.40
2018-11-28T12:32:03.550Z,11.50
2018-11-28T12:34:32.238Z,11.50
2018-11-28T12:37:00.788Z,11.50
2018-11-28T12:39:30.260Z,11.50
2018-11-28T12:41:58.972Z,11.30
2018-11-28T12:44:27.631Z,11.30
2018-11-28T12:46:56.641Z,11.30
2018-11-28T12:49:25.982Z,11.40
2018-11-28T12:51:54.673Z,11.40
2018-11-28T12:54:23.503Z,11.50
2018-11-28T12:56:52.246Z,11.60
2018-11-28T12:59:20.973Z,11.60
2018-11-28T13:04:18.027Z,11.60
2018-11-28T13:06:48.909Z,11.70
2018-11-28T13:09:18.081Z,11.70
2018-11-28T13:11:53.848Z,11.50
2018-11-28T13:14:22.806Z,11.50
2018-11-28T13:16:52.339Z,11.40
2018-11-28T13:19:21.708Z,11.50
2018-11-28T13:21:50.625Z,11.50
2018-11-28T13:24:21.326Z,11.50
2018-11-28T13:26:50.841Z,11.50
2018-11-28T13:29:20.261Z,11.40
2018-11-28T13:31:49.697Z,11.50
2018-11-28T13:34:18.555Z,11.50
2018-11-28T13:39:15.720Z,11.60
2018-11-28T13:41:44.613Z,11.70
2018-11-28T13:44:13.179Z,11.70
2018-11-28T13:46:41.881Z,11.60
2018-11-28T13:49:11.079Z,11.50
2018-11-28T13:51:40.625Z,11.60
2018-11-28T13:54:21.126Z,11.60
2018-11-28T14:01:36.330Z,11.70
2018-11-28T14:04:06.268Z,11.70
2018-11-28T14:06:35.053Z,11.60
2018-11-28T14:09:03.893Z,11.50
2018-11-28T14:11:32.601Z,11.50
2018-11-28T14:16:29.528Z,11.50
2018-11-28T14:18:58.223Z,11.50
2018-11-28T14:21:26.906Z,11.40
2018-11-28T14:23:56.100Z,11.30
2018-11-28T14:26:24.768Z,11.40
2018-11-28T14:28:54.699Z,11.40
2018-11-28T14:31:23.628Z,11.40
2018-11-28T14:36:27.602Z,11.60
2018-11-28T14:38:57.152Z,11.60
2018-11-28T14:41:25.885Z,11.60
2018-11-28T14:43:54.591Z,11.50
2018-11-28T14:46:23.556Z,11.50
2018-11-28T14:48:52.318Z,11.50
2018-11-28T14:51:20.950Z,11.50
2018-11-28T14:53:50.284Z,11.60
2018-11-28T14:56:18.934Z,11.60
2018-11-28T14:58:47.513Z,11.50
2018-11-28T15:01:16.111Z,11.40
2018-11-28T15:03:44.999Z,11.40
2018-11-28T15:06:31.739Z,11.40
2018-11-28T15:11:33.877Z,11.30
2018-11-28T15:14:02.430Z,11.30
2018-11-28T15:16:31.206Z,11.30
2018-11-28T15:18:59.793Z,11.30
2018-11-28T15:21:28.352Z,11.30
2018-11-28T15:26:27.646Z,11.20
2018-11-28T15:28:57.372Z,11.20
2018-11-28T15:31:26.000Z,11.20
2018-11-28T15:33:54.936Z,11.10
2018-11-28T15:36:23.523Z,11.00
2018-11-28T15:38:52.158Z,11.00
2018-11-28T15:41:20.802Z,11.00
2018-11-28T15:43:50.056Z,11.00
2018-11-28T15:46:18.762Z,10.90
2018-11-28T15:48:47.375Z,10.90
2018-11-28T15:53:45.282Z,11.00
2018-11-28T15:56:14.075Z,11.00
2018-11-28T15:58:42.657Z,11.10
2018-11-28T16:01:11.342Z,11.10
2018-11-28T16:03:40.016Z,11.00
2018-11-28T16:06:08.859Z,10.90
2018-11-28T16:08:37.564Z,10.90
2018-11-28T16:11:09.730Z,10.90
2018-11-28T16:13:40.159Z,10.90
2018-11-28T16:16:09.023Z,10.90
2018-11-28T16:18:37.600Z,10.70
2018-11-28T16:21:06.636Z,10.60
2018-11-28T16:23:35.303Z,10.60
2018-11-28T16:28:33.292Z,10.50
2018-11-28T16:31:02.079Z,10.50
2018-11-28T16:35:59.227Z,10.40
2018-11-28T16:38:27.944Z,10.40
2018-11-28T16:40:56.710Z,10.30
2018-11-28T16:43:25.380Z,10.30
2018-11-28T16:45:54.127Z,10.20
2018-11-28T16:48:23.491Z,10.20
2018-11-28T16:51:10.892Z,10.20
2018-11-28T16:53:46.541Z,10.10
2018-11-28T16:56:17.206Z,10.10
2018-11-28T16:58:46.819Z,10.10
2018-11-28T17:03:44.196Z,10.00
2018-11-28T17:06:13.123Z,10.10
2018-11-28T17:08:42.170Z,9.80
2018-11-28T17:11:10.838Z,9.90
2018-11-28T17:13:39.576Z,9.90
2018-11-28T17:16:08.320Z,10.00
2018-11-28T17:18:37.882Z,10.00
2018-11-28T17:21:06.741Z,10.00
2018-11-28T17:23:36.572Z,10.00
2018-11-28T17:26:05.266Z,9.90
2018-11-28T17:28:33.922Z,9.90
2018-11-28T17:31:02.544Z,9.80
2018-11-28T17:33:31.370Z,9.90
2018-11-28T17:36:00.082Z,10.00
2018-11-28T17:38:28.659Z,9.90
2018-11-28T17:40:57.325Z,9.90
2018-11-28T17:43:25.865Z,9.80
2018-11-28T17:45:55.642Z,9.70
2018-11-28T17:48:24.556Z,9.70
2018-11-28T17:50:54.033Z,9.80
2018-11-28T17:53:24.048Z,9.80
2018-11-28T17:55:55.897Z,9.80
2018-11-28T17:58:24.484Z,9.70
2018-11-28T18:00:53.743Z,9.70
2018-11-28T18:03:23.087Z,9.60
2018-11-28T18:05:51.802Z,9.70
2018-11-28T18:08:22.406Z,9.70
2018-11-28T18:10:51.081Z,9.70
2018-11-28T18:13:21.794Z,9.70
2018-11-28T18:18:23.739Z,9.70
2018-11-28T18:20:52.559Z,9.70
2018-11-28T18:23:21.205Z,9.70
2018-11-28T18:25:50.195Z,9.70
2018-11-28T18:28:19.447Z,9.80
2018-11-28T18:30:49.228Z,9.80
2018-11-28T18:33:17.826Z,9.70
2018-11-28T18:35:46.445Z,9.80
2018-11-28T18:38:15.459Z,9.80
2018-11-28T18:40:44.562Z,9.80
2018-11-28T18:43:13.336Z,9.90
2018-11-28T18:45:44.940Z,9.90
2018-11-28T18:48:13.768Z,10.00
2018-11-28T18:50:46.080Z,10.00
2018-11-28T18:53:16.272Z,10.00
2018-11-28T18:55:44.970Z,10.10
2018-11-28T18:58:14.339Z,10.20
2018-11-28T19:00:44.024Z,10.10
2018-11-28T19:03:12.614Z,10.20
2018-11-28T19:08:10.385Z,10.30
2018-11-28T19:10:39.083Z,10.30
2018-11-28T19:13:10.182Z,10.20
2018-11-28T19:15:50.165Z,10.30
2018-11-28T19:18:21.559Z,10.30
2018-11-28T19:20:52.043Z,10.20
2018-11-28T19:23:20.762Z,10.30
2018-11-28T19:25:51.447Z,10.20
2018-11-28T19:28:28.469Z,10.30
2018-11-28T19:33:26.466Z,10.30
2018-11-28T19:35:55.958Z,10.30
2018-11-28T19:38:24.707Z,10.40
2018-11-28T19:40:58.137Z,10.50
2018-11-28T19:43:27.439Z,10.60
2018-11-28T19:45:56.394Z,10.50
2018-11-28T19:48:27.538Z,10.60
2018-11-28T19:51:00.217Z,10.60
2018-11-28T19:53:32.559Z,10.60
2018-11-28T19:56:02.155Z,10.50
2018-11-28T19:58:32.017Z,10.50
2018-11-28T20:01:00.721Z,10.50
2018-11-28T20:03:30.630Z,10.60
2018-11-28T20:06:02.700Z,10.60
2018-11-28T20:08:31.477Z,10.60
2018-11-28T20:11:00.799Z,10.60
2018-11-28T20:13:29.478Z,10.60
2018-11-28T20:15:58.330Z,10.60
2018-11-28T20:18:28.646Z,10.60
2018-11-28T20:21:21.559Z,10.60
2018-11-28T20:23:53.699Z,10.60
2018-11-28T20:26:28.050Z,10.60
2018-11-28T20:29:04.474Z,10.60
2018-11-28T20:31:38.624Z,10.70
2018-11-28T22:04:36.009Z,10.90
2018-11-28T22:07:04.788Z,10.80
2018-11-28T22:09:33.772Z,10.80
2018-11-28T22:12:03.264Z,10.80
2018-11-28T22:14:31.905Z,10.80
2018-11-28T22:17:00.680Z,10.90
2018-11-28T22:22:05.982Z,11.00
2018-11-28T22:24:34.910Z,11.00
